Terminal Aerodrome Forecast
Issued by NWS Lake Charles, LA

Home | Current Version | Previous Version | Text Only | Print | Product List | Glossary On
Versions: 1 2 3 4 5 6 7 8 9 10 11 12 13 14 15 16 17
000
FTUS44 KLCH 280500
TAFARA
TAF
KARA 280524Z 2806/2906 30012G18KT P6SM VCSH SCT002 BKN006 OVC018
      TEMPO 2806/2807 1SM BR OVC002
     FM280800 33012KT 6SM -SHRA SCT008 OVC015
      TEMPO 2808/2812 BKN008 OVC015
     FM281200 35012KT 6SM -SHRA OVC006
     FM281800 36010KT 6SM -SHRA OVC010
     FM290000 01008KT P6SM VCSH OVC015
      TEMPO 2900/2904 -SHRA=

USA.gov is the U.S. government's official web portal to all federal, state and local government web resources and services.